Time;durP1;ratioP1;P1;durP2;ratioP2;P2;SDS_P1;SDS_P2;PMS_P1;PMS_P2;Temp;Humidity;BMP_temperature;BMP_pressure;BME280_temperature;BME280_humidity;BME280_pressure;Samples;Min_cycle;Max_cycle;Signal;HPM_P1;HPM_P2
2022/01/14 00:00:59;;;;;;;81.93;21.60;;;5.80;99.90;;;;;;5074427;28;20075;-76
2022/01/14 00:03:25;;;;;;;55.67;19.92;;;5.80;99.90;;;;;;5058119;28;20400;-77
2022/01/14 00:05:50;;;;;;;65.60;20.38;;;5.80;99.90;;;;;;5074722;28;20082;-76
2022/01/14 00:08:16;;;;;;;56.75;20.08;;;5.80;99.90;;;;;;5089890;28;20225;-74
2022/01/14 00:10:48;;;;;;;61.50;21.87;;;5.80;99.90;;;;;;5074498;28;20132;-77
2022/01/14 00:13:38;;;;;;;53.13;21.38;;;5.80;99.90;;;;;;5074599;28;20055;-76
2022/01/14 00:16:00;;;;;;;60.97;21.88;;;5.80;99.90;;;;;;5073988;28;20062;-76
2022/01/14 00:18:25;;;;;;;79.63;24.02;;;5.80;99.90;;;;;;5074263;28;20048;-75
2022/01/14 00:20:51;;;;;;;78.75;25.17;;;5.80;99.90;;;;;;5074611;28;20844;-74
2022/01/14 00:23:18;;;;;;;68.00;25.20;;;5.80;99.90;;;;;;5074092;28;20058;-72
2022/01/14 00:33:57;;;;;;;61.80;25.58;;;5.80;99.90;;;;;;5090951;28;20056;-72
2022/01/14 00:36:22;;;;;;;60.67;27.00;;;5.90;99.90;;;;;;5073305;28;20147;-75
2022/01/14 00:38:48;;;;;;;59.60;25.73;;;5.90;99.90;;;;;;5073997;28;20076;-75
2022/01/14 00:41:14;;;;;;;52.75;26.67;;;5.90;99.90;;;;;;5074304;28;20050;-74
2022/01/14 00:43:42;;;;;;;68.70;27.67;;;6.00;99.90;;;;;;5073311;28;20100;-77
2022/01/14 00:46:08;;;;;;;63.78;26.02;;;5.90;99.90;;;;;;5074041;28;20048;-78
2022/01/14 00:48:34;;;;;;;62.55;25.63;;;5.90;99.90;;;;;;5073827;28;20059;-74
2022/01/14 00:50:59;;;;;;;62.08;25.85;;;6.00;99.90;;;;;;5072819;28;20085;-73
2022/01/14 00:53:25;;;;;;;49.55;24.52;;;6.00;99.90;;;;;;5074120;28;20044;-73
2022/01/14 00:56:05;;;;;;;59.53;26.27;;;6.00;99.90;;;;;;5056767;28;20032;-74
2022/01/14 01:01:15;;;;;;;58.42;25.70;;;6.00;99.90;;;;;;5073208;28;20489;-74
2022/01/14 01:03:40;;;;;;;61.08;26.83;;;6.00;99.90;;;;;;5058944;28;20073;-74
2022/01/14 01:06:07;;;;;;;60.85;25.30;;;6.00;99.90;;;;;;5072934;28;20400;-74
2022/01/14 01:08:34;;;;;;;57.70;25.40;;;6.00;99.90;;;;;;5073915;28;20047;-74
2022/01/14 01:11:03;;;;;;;56.92;25.70;;;6.00;99.90;;;;;;5072458;28;20559;-74
2022/01/14 01:13:33;;;;;;;55.28;25.02;;;6.00;99.90;;;;;;5087095;28;20044;-74
2022/01/14 01:15:59;;;;;;;51.67;24.00;;;6.00;99.90;;;;;;5073117;28;20081;-74
2022/01/14 01:18:25;;;;;;;51.90;24.90;;;6.00;99.90;;;;;;5056494;28;20052;-72
2022/01/14 01:20:51;;;;;;;56.05;25.95;;;6.00;99.90;;;;;;5056537;28;20044;-72
2022/01/14 01:23:17;;;;;;;56.00;24.83;;;6.00;99.90;;;;;;5072847;28;20048;-71
2022/01/14 01:25:55;;;;;;;63.53;27.10;;;5.90;99.90;;;;;;5071880;28;20048;-74
2022/01/14 01:28:21;;;;;;;58.90;23.63;;;5.90;99.90;;;;;;5091290;28;20040;-70
2022/01/14 01:31:03;;;;;;;50.63;21.92;;;5.90;99.90;;;;;;5073295;28;20051;-75
2022/01/14 01:33:29;;;;;;;51.73;22.23;;;5.90;99.90;;;;;;5069725;28;20051;-75
2022/01/14 01:35:56;;;;;;;74.40;23.00;;;5.90;99.90;;;;;;5072877;28;20286;-74
2022/01/14 01:38:22;;;;;;;62.75;23.98;;;5.80;99.90;;;;;;5072810;28;20054;-73
2022/01/14 01:40:48;;;;;;;54.47;21.85;;;5.80;99.90;;;;;;5071722;28;20484;-72
2022/01/14 01:43:15;;;;;;;79.70;22.55;;;5.80;99.90;;;;;;5073035;28;20130;-69
2022/01/14 01:45:44;;;;;;;54.40;21.75;;;5.80;99.90;;;;;;5090785;28;20036;-72
2022/01/14 01:48:10;;;;;;;73.82;24.05;;;5.80;99.90;;;;;;5071590;28;20484;-74
2022/01/14 01:50:36;;;;;;;45.80;20.42;;;5.80;99.90;;;;;;5072914;28;20089;-73
2022/01/14 01:53:04;;;;;;;60.30;20.88;;;5.80;99.90;;;;;;5072107;28;20063;-74
2022/01/14 01:55:30;;;;;;;47.22;21.27;;;5.80;99.90;;;;;;5072864;28;20047;-74
2022/01/14 01:57:56;;;;;;;55.63;21.52;;;5.80;99.90;;;;;;5072905;28;20044;-75
2022/01/14 02:00:24;;;;;;;60.92;20.85;;;5.80;99.90;;;;;;5054941;28;20142;-75
2022/01/14 02:02:51;;;;;;;47.10;21.27;;;5.80;99.90;;;;;;5055871;28;20050;-75
2022/01/14 02:05:17;;;;;;;50.63;22.05;;;5.80;99.90;;;;;;5072457;28;20051;-72
2022/01/14 02:07:43;;;;;;;55.70;21.02;;;5.80;99.90;;;;;;5072185;28;20079;-75
2022/01/14 02:10:10;;;;;;;58.42;22.05;;;5.80;99.90;;;;;;5056431;28;20083;-75
2022/01/14 02:12:45;;;;;;;46.83;21.40;;;5.80;99.90;;;;;;5058075;28;20044;-72
2022/01/14 02:15:15;;;;;;;51.53;21.05;;;5.70;99.90;;;;;;5072241;28;20051;-74
2022/01/14 02:18:14;;;;;;;66.50;23.40;;;5.80;99.90;;;;;;5084738;28;20417;-74
2022/01/14 02:23:17;;;;;;;46.55;21.35;;;5.80;99.90;;;;;;5077686;28;20052;-71
2022/01/14 02:25:45;;;;;;;49.83;21.67;;;5.80;99.90;;;;;;5055609;28;20056;-74
2022/01/14 02:28:16;;;;;;;47.75;21.15;;;5.80;99.90;;;;;;5071760;28;20086;-75
2022/01/14 02:30:43;;;;;;;49.83;22.05;;;5.80;99.90;;;;;;5072563;28;20044;-74
2022/01/14 02:33:10;;;;;;;43.17;20.73;;;5.80;99.90;;;;;;5072679;28;20091;-74
2022/01/14 02:35:38;;;;;;;45.20;21.67;;;5.80;99.90;;;;;;5072124;28;20074;-73
2022/01/14 02:38:04;;;;;;;39.97;20.48;;;5.80;99.90;;;;;;5072721;28;20404;-72
2022/01/14 02:40:30;;;;;;;63.33;22.83;;;5.80;99.90;;;;;;5055859;28;20055;-74
2022/01/14 02:42:59;;;;;;;48.55;21.38;;;5.80;99.90;;;;;;5071132;28;20048;-74
2022/01/14 02:45:30;;;;;;;36.60;19.60;;;5.80;99.90;;;;;;5072556;28;20067;-73
2022/01/14 02:47:56;;;;;;;49.85;21.20;;;5.80;99.90;;;;;;5071904;28;20048;-74
2022/01/14 02:50:23;;;;;;;63.28;22.73;;;5.70;99.90;;;;;;5072221;28;20390;-74
2022/01/14 02:55:20;;;;;;;52.72;21.10;;;5.70;99.90;;;;;;5076512;28;20067;-74
2022/01/14 02:57:48;;;;;;;43.55;20.60;;;5.70;99.90;;;;;;5075073;28;20420;-74
2022/01/14 03:00:16;;;;;;;49.53;22.25;;;5.80;99.90;;;;;;5076517;28;20036;-74
2022/01/14 03:02:44;;;;;;;51.92;21.65;;;5.70;99.90;;;;;;5058955;28;20043;-74
2022/01/14 03:05:11;;;;;;;43.90;20.83;;;5.70;99.90;;;;;;5075562;28;20144;-74
2022/01/14 03:07:41;;;;;;;44.40;20.38;;;5.70;99.90;;;;;;5071487;28;20051;-72
2022/01/14 03:10:09;;;;;;;42.40;19.60;;;5.70;99.90;;;;;;5076290;28;20052;-73
2022/01/14 03:12:35;;;;;;;57.95;22.08;;;5.70;99.90;;;;;;5074549;28;20113;-74
2022/01/14 03:15:01;;;;;;;57.35;22.55;;;5.70;99.90;;;;;;5076038;28;20090;-74
2022/01/14 03:17:28;;;;;;;59.72;21.83;;;5.70;99.90;;;;;;5092907;28;20043;-73
2022/01/14 03:19:54;;;;;;;40.38;20.52;;;5.70;99.90;;;;;;5059174;28;20040;-74
2022/01/14 03:22:22;;;;;;;64.28;21.60;;;5.70;99.90;;;;;;5075201;28;20146;-74
2022/01/14 03:27:13;;;;;;;59.17;22.05;;;5.70;99.90;;;;;;5075152;28;20044;-74
2022/01/14 03:29:39;;;;;;;52.85;22.83;;;5.70;99.90;;;;;;5075727;28;20461;-75
2022/01/14 03:32:05;;;;;;;44.13;20.95;;;5.60;99.90;;;;;;5074404;28;20048;-75
2022/01/14 03:34:32;;;;;;;42.53;20.52;;;5.70;99.90;;;;;;5075445;28;20152;-75
2022/01/14 03:36:57;;;;;;;45.58;23.25;;;5.70;99.90;;;;;;5075266;28;20373;-75
2022/01/14 03:39:23;;;;;;;49.88;21.65;;;5.70;99.90;;;;;;5075035;28;20093;-75
2022/01/14 03:41:49;;;;;;;46.05;21.70;;;5.70;99.90;;;;;;5069602;28;20397;-75
2022/01/14 03:44:16;;;;;;;53.67;21.67;;;5.70;99.90;;;;;;5075581;28;20143;-75
2022/01/14 03:46:42;;;;;;;47.13;21.17;;;5.70;99.90;;;;;;5073882;28;20047;-74
2022/01/14 03:49:07;;;;;;;51.80;22.45;;;5.70;99.90;;;;;;5075628;28;20081;-75
2022/01/14 03:51:33;;;;;;;65.75;22.45;;;5.70;99.90;;;;;;5059767;28;20040;-75
2022/01/14 03:53:59;;;;;;;50.47;21.52;;;5.70;99.90;;;;;;5074496;28;20134;-75
2022/01/14 03:56:25;;;;;;;54.50;22.92;;;5.70;99.90;;;;;;5074663;28;20036;-76
2022/01/14 03:58:52;;;;;;;53.80;22.67;;;5.70;99.90;;;;;;5074593;28;20496;-72
2022/01/14 04:01:19;;;;;;;44.80;21.23;;;5.60;99.90;;;;;;5073587;28;20081;-75
2022/01/14 04:03:46;;;;;;;43.95;20.45;;;5.60;99.90;;;;;;5074340;28;20048;-76
2022/01/14 04:06:13;;;;;;;42.00;20.10;;;5.70;99.90;;;;;;5074489;28;20036;-76
2022/01/14 04:08:40;;;;;;;46.47;20.63;;;5.70;99.90;;;;;;5074340;28;20048;-75
2022/01/14 04:11:08;;;;;;;47.88;20.77;;;5.70;99.90;;;;;;5075164;28;20127;-74
2022/01/14 04:13:47;;;;;;;43.67;21.05;;;5.60;99.90;;;;;;5074758;28;20048;-76
2022/01/14 04:16:14;;;;;;;44.20;21.63;;;5.60;99.90;;;;;;5074512;28;20395;-75
2022/01/14 04:18:40;;;;;;;47.80;20.35;;;5.60;99.90;;;;;;5074386;28;20082;-76
2022/01/14 04:21:06;;;;;;;54.97;22.50;;;5.60;99.90;;;;;;5074374;28;20392;-73
2022/01/14 04:23:32;;;;;;;41.85;21.02;;;5.60;99.90;;;;;;5073899;28;20044;-75
2022/01/14 04:25:57;;;;;;;35.58;19.27;;;5.60;99.90;;;;;;5074398;28;20033;-75
2022/01/14 04:28:25;;;;;;;46.65;21.10;;;5.60;99.90;;;;;;5073565;28;20040;-76
2022/01/14 04:30:54;;;;;;;54.17;22.88;;;5.60;99.90;;;;;;5074157;28;20040;-76
2022/01/14 04:33:21;;;;;;;41.83;21.63;;;5.60;99.90;;;;;;5074121;28;20396;-75
2022/01/14 04:35:47;;;;;;;43.50;22.27;;;5.60;99.90;;;;;;5073593;28;20048;-75
2022/01/14 04:38:13;;;;;;;45.67;21.65;;;5.60;99.90;;;;;;5074085;28;20071;-76
2022/01/14 04:40:39;;;;;;;40.33;21.17;;;5.60;99.90;;;;;;5073992;28;20036;-77
2022/01/14 04:43:07;;;;;;;37.28;21.33;;;5.60;99.90;;;;;;5073433;28;20103;-77
2022/01/14 04:48:03;;;;;;;37.40;20.52;;;5.60;99.90;;;;;;5081765;28;20389;-77
2022/01/14 04:50:29;;;;;;;43.35;22.98;;;5.60;99.90;;;;;;5072077;28;20443;-77
2022/01/14 04:52:55;;;;;;;40.85;22.92;;;5.60;99.90;;;;;;5073191;28;20036;-77
2022/01/14 04:55:23;;;;;;;40.95;22.02;;;5.60;99.90;;;;;;5056406;28;20396;-77
2022/01/14 04:57:50;;;;;;;42.70;22.13;;;5.60;99.90;;;;;;5046900;28;20049;-76
2022/01/14 05:00:19;;;;;;;42.25;21.85;;;5.60;99.90;;;;;;5073667;28;20044;-76
2022/01/14 05:02:44;;;;;;;43.33;21.52;;;5.60;99.90;;;;;;5057153;28;20162;-74
2022/01/14 05:05:11;;;;;;;43.28;22.17;;;5.60;99.90;;;;;;5072939;28;20126;-74
2022/01/14 05:07:37;;;;;;;40.08;20.05;;;5.60;99.90;;;;;;5073644;28;20063;-74
2022/01/14 05:12:32;;;;;;;37.17;20.70;;;5.60;99.90;;;;;;5073385;28;20515;-74
2022/01/14 05:14:58;;;;;;;37.17;21.00;;;5.60;99.90;;;;;;5072271;28;20363;-72
2022/01/14 05:17:24;;;;;;;44.70;21.88;;;5.60;99.90;;;;;;5072586;28;20059;-74
2022/01/14 05:19:50;;;;;;;44.33;21.40;;;5.60;99.90;;;;;;5073237;28;20135;-74
2022/01/14 05:22:17;;;;;;;41.53;20.88;;;5.60;99.90;;;;;;5091376;28;20470;-74
2022/01/14 05:24:43;;;;;;;44.22;21.90;;;5.60;99.90;;;;;;5072577;28;20052;-76
2022/01/14 05:27:10;;;;;;;34.95;19.85;;;5.70;99.90;;;;;;5073365;28;20127;-75
2022/01/14 05:29:35;;;;;;;36.70;20.98;;;5.60;99.90;;;;;;5073488;28;20040;-74
2022/01/14 05:32:05;;;;;;;41.45;22.42;;;5.60;99.90;;;;;;5072438;28;20044;-74
2022/01/14 05:34:36;;;;;;;38.03;21.60;;;5.70;99.90;;;;;;5074968;28;20036;-75
2022/01/14 05:37:04;;;;;;;41.70;21.30;;;5.60;99.90;;;;;;5073282;28;20044;-74
2022/01/14 05:39:30;;;;;;;36.33;21.08;;;5.70;99.90;;;;;;5072394;28;20072;-74
2022/01/14 05:41:57;;;;;;;36.35;20.98;;;5.70;99.90;;;;;;5072980;28;20097;-74
2022/01/14 05:44:23;;;;;;;34.50;21.63;;;5.70;99.90;;;;;;5072621;28;20496;-75
2022/01/14 05:46:50;;;;;;;37.80;22.05;;;5.70;99.90;;;;;;5072422;28;20052;-77
2022/01/14 05:49:16;;;;;;;38.33;22.33;;;5.60;99.90;;;;;;5072700;28;20044;-75
2022/01/14 05:51:41;;;;;;;36.95;21.42;;;5.70;99.90;;;;;;5072999;28;20032;-74
2022/01/14 05:54:07;;;;;;;43.53;22.58;;;5.70;99.90;;;;;;5072337;28;20412;-75
2022/01/14 05:56:33;;;;;;;34.58;21.30;;;5.70;99.90;;;;;;5091306;28;20036;-76
2022/01/14 05:58:59;;;;;;;41.75;21.98;;;5.70;99.90;;;;;;5059446;28;20511;-75
2022/01/14 06:01:24;;;;;;;40.95;22.33;;;5.70;99.90;;;;;;5071596;28;20040;-77
2022/01/14 06:03:50;;;;;;;43.67;22.27;;;5.70;99.90;;;;;;5077755;28;20036;-76
2022/01/14 06:06:15;;;;;;;36.00;21.33;;;5.70;99.90;;;;;;5068697;28;20055;-75
2022/01/14 06:08:41;;;;;;;35.95;20.40;;;5.70;99.90;;;;;;5090302;28;20032;-76
2022/01/14 06:11:07;;;;;;;36.90;21.60;;;5.70;99.90;;;;;;5073507;28;20090;-75
2022/01/14 06:13:33;;;;;;;35.47;20.65;;;5.70;99.90;;;;;;5087567;28;20407;-77
2022/01/14 06:15:58;;;;;;;33.63;20.63;;;5.70;99.90;;;;;;5072958;28;20040;-74
2022/01/14 06:18:24;;;;;;;37.40;20.77;;;5.70;99.90;;;;;;5072302;28;20044;-74
2022/01/14 06:20:50;;;;;;;32.85;20.85;;;5.70;99.90;;;;;;5072302;28;20036;-75
2022/01/14 06:23:15;;;;;;;32.45;20.75;;;5.80;99.90;;;;;;5072207;28;20438;-75
2022/01/14 06:25:41;;;;;;;29.90;20.95;;;5.70;99.90;;;;;;5073503;28;20158;-74
2022/01/14 06:28:07;;;;;;;31.55;20.58;;;5.70;99.90;;;;;;5075981;28;20048;-74
2022/01/14 06:30:32;;;;;;;30.65;20.33;;;5.70;99.90;;;;;;5076603;28;20040;-74
2022/01/14 06:32:58;;;;;;;35.00;20.45;;;5.70;99.90;;;;;;5075477;28;20094;-74
2022/01/14 06:35:24;;;;;;;32.65;21.48;;;5.70;99.90;;;;;;5059588;28;20491;-74
2022/01/14 06:37:50;;;;;;;30.40;19.38;;;5.80;99.90;;;;;;5076059;28;20549;-73
2022/01/14 06:40:16;;;;;;;31.42;20.08;;;5.80;99.90;;;;;;5056788;28;20489;-74
2022/01/14 06:42:42;;;;;;;32.30;21.02;;;5.70;99.90;;;;;;5048360;28;20040;-74
2022/01/14 06:45:08;;;;;;;33.05;21.70;;;5.80;99.90;;;;;;5076363;28;20395;-75
2022/01/14 06:47:34;;;;;;;32.88;21.70;;;5.80;99.90;;;;;;5076222;28;20050;-76
2022/01/14 06:49:59;;;;;;;29.05;21.80;;;5.80;99.90;;;;;;5075683;28;20036;-75
2022/01/14 06:52:25;;;;;;;28.38;19.50;;;5.80;99.90;;;;;;5070883;28;20055;-74
2022/01/14 06:54:51;;;;;;;28.70;19.90;;;5.80;99.90;;;;;;5071376;28;20044;-75
2022/01/14 06:57:17;;;;;;;24.80;19.58;;;5.80;99.90;;;;;;5075059;28;20055;-76
2022/01/14 06:59:43;;;;;;;27.88;19.23;;;5.90;99.90;;;;;;5094248;28;20127;-72
2022/01/14 07:02:10;;;;;;;29.63;20.75;;;5.90;99.90;;;;;;5075887;28;20622;-72
2022/01/14 07:04:36;;;;;;;32.85;21.42;;;5.90;99.90;;;;;;5076211;28;20052;-72
2022/01/14 07:07:03;;;;;;;32.22;20.65;;;5.90;99.90;;;;;;5093678;28;20488;-73
2022/01/14 07:09:30;;;;;;;35.97;22.40;;;5.90;99.90;;;;;;5075460;28;20496;-73
2022/01/14 07:11:58;;;;;;;26.65;20.00;;;5.90;99.90;;;;;;5075625;28;20052;-73
2022/01/14 07:14:24;;;;;;;27.05;20.90;;;5.90;99.90;;;;;;5075960;28;20077;-72
2022/01/14 07:16:50;;;;;;;32.05;20.70;;;5.90;99.90;;;;;;5073779;28;20150;-73
2022/01/14 07:19:18;;;;;;;27.60;20.75;;;6.00;99.90;;;;;;5075309;28;20489;-72
2022/01/14 07:21:44;;;;;;;29.63;21.50;;;6.00;99.90;;;;;;5075348;28;20052;-78
2022/01/14 07:24:10;;;;;;;28.35;21.83;;;6.00;99.90;;;;;;5075182;28;20121;-77
2022/01/14 07:26:36;;;;;;;28.08;20.80;;;6.00;99.90;;;;;;5075611;28;20044;-73
2022/01/14 07:29:02;;;;;;;30.08;20.88;;;6.00;99.90;;;;;;5075680;28;20097;-78
2022/01/14 07:31:28;;;;;;;27.05;20.88;;;6.00;99.90;;;;;;5074233;28;20040;-75
2022/01/14 07:33:54;;;;;;;28.98;21.02;;;6.00;99.90;;;;;;5057964;28;20051;-76
2022/01/14 07:36:19;;;;;;;30.70;21.02;;;6.10;99.90;;;;;;5075201;28;20040;-75
2022/01/14 07:38:45;;;;;;;30.17;19.17;;;6.10;99.90;;;;;;5057096;28;20247;-75
2022/01/14 07:41:11;;;;;;;27.38;20.10;;;6.10;99.90;;;;;;5065057;28;20488;-74
2022/01/14 07:43:36;;;;;;;30.85;20.42;;;6.10;99.90;;;;;;5067851;28;20046;-73
2022/01/14 07:46:04;;;;;;;29.75;20.08;;;6.10;99.90;;;;;;5072651;28;20144;-74
2022/01/14 07:48:29;;;;;;;28.88;19.98;;;6.20;99.90;;;;;;5074775;28;20873;-74
2022/01/14 07:50:55;;;;;;;24.30;20.20;;;6.10;99.90;;;;;;5074349;28;20044;-75
2022/01/14 07:53:20;;;;;;;29.35;21.88;;;6.20;99.90;;;;;;5073439;28;20408;-75
2022/01/14 07:55:46;;;;;;;31.80;21.40;;;6.20;99.90;;;;;;5074960;28;20046;-72
2022/01/14 07:58:13;;;;;;;28.33;21.17;;;6.20;99.90;;;;;;5073852;28;20058;-76
2022/01/14 08:00:40;;;;;;;31.55;21.48;;;6.20;99.90;;;;;;5074217;28;20047;-74
2022/01/14 08:03:05;;;;;;;26.30;20.67;;;6.20;99.90;;;;;;5075072;28;20090;-73
2022/01/14 08:05:31;;;;;;;30.35;19.85;;;6.20;99.90;;;;;;5074506;28;20075;-73
2022/01/14 08:08:03;;;;;;;29.85;21.52;;;6.10;99.90;;;;;;5073660;28;20651;-73
2022/01/14 08:10:28;;;;;;;29.47;20.50;;;6.20;99.90;;;;;;5074374;28;20048;-73
2022/01/14 08:12:54;;;;;;;27.38;19.90;;;6.20;99.90;;;;;;5071998;28;20371;-74
2022/01/14 08:15:19;;;;;;;32.63;19.10;;;6.20;99.90;;;;;;5058210;28;20047;-74
2022/01/14 08:17:45;;;;;;;27.98;20.00;;;6.20;99.90;;;;;;5072991;28;20639;-74
2022/01/14 08:20:11;;;;;;;21.45;19.15;;;6.20;99.90;;;;;;5071576;28;20047;-73
2022/01/14 08:22:37;;;;;;;35.35;19.75;;;6.30;99.90;;;;;;5073823;28;20048;-74
2022/01/14 08:25:04;;;;;;;29.30;19.58;;;6.30;99.90;;;;;;5071612;28;20043;-74
2022/01/14 08:27:29;;;;;;;26.40;18.45;;;6.30;99.90;;;;;;5068070;28;20413;-73
2022/01/14 08:29:55;;;;;;;27.10;19.77;;;6.30;99.90;;;;;;5072714;28;20373;-73
2022/01/14 08:32:22;;;;;;;29.00;18.20;;;6.30;99.90;;;;;;5091450;28;20036;-72
2022/01/14 08:34:48;;;;;;;31.05;19.73;;;6.30;99.90;;;;;;5072874;28;20048;-73
2022/01/14 08:37:14;;;;;;;28.25;18.17;;;6.30;99.90;;;;;;5074364;28;20056;-71
2022/01/14 08:39:40;;;;;;;27.55;19.63;;;6.30;99.90;;;;;;5090521;28;20048;-73
2022/01/14 08:42:08;;;;;;;28.13;18.85;;;6.40;99.90;;;;;;5070264;28;20492;-73
2022/01/14 08:44:36;;;;;;;28.50;18.25;;;6.40;99.90;;;;;;5070649;28;20073;-72
2022/01/14 08:47:05;;;;;;;25.80;16.95;;;6.40;99.90;;;;;;5080842;28;20049;-72
2022/01/14 08:49:31;;;;;;;26.65;17.92;;;6.40;99.90;;;;;;5084221;28;20048;-73
2022/01/14 08:51:57;;;;;;;27.85;16.80;;;6.40;99.90;;;;;;5092130;28;20117;-73
2022/01/14 08:54:22;;;;;;;25.77;16.42;;;6.50;99.90;;;;;;5057329;28;20083;-73
2022/01/14 08:56:49;;;;;;;26.52;15.80;;;6.50;99.90;;;;;;5057063;28;20044;-73
2022/01/14 08:59:17;;;;;;;23.23;16.48;;;6.50;99.90;;;;;;5057195;28;20584;-73
2022/01/14 09:01:43;;;;;;;33.97;16.88;;;6.50;99.90;;;;;;5073410;28;20048;-74
2022/01/14 09:04:09;;;;;;;23.55;15.85;;;6.60;99.90;;;;;;5072676;28;20032;-73
2022/01/14 09:06:35;;;;;;;22.73;15.05;;;6.60;99.90;;;;;;5073670;28;20048;-72
2022/01/14 09:09:00;;;;;;;20.52;13.50;;;6.60;99.90;;;;;;5089623;28;20131;-73
2022/01/14 09:11:26;;;;;;;21.50;14.32;;;6.60;99.90;;;;;;5067075;28;20070;-72
2022/01/14 09:13:52;;;;;;;21.20;13.65;;;6.70;99.90;;;;;;5073422;28;20085;-73
2022/01/14 09:16:20;;;;;;;20.60;13.35;;;6.70;99.90;;;;;;5069588;28;20040;-72
2022/01/14 09:18:47;;;;;;;21.95;13.57;;;6.70;99.90;;;;;;5071571;28;20135;-74
2022/01/14 09:21:14;;;;;;;19.15;13.43;;;6.70;99.90;;;;;;5072790;28;20101;-73
2022/01/14 09:23:40;;;;;;;21.83;13.05;;;6.70;99.90;;;;;;5088931;28;20055;-73
2022/01/14 09:26:05;;;;;;;27.90;13.43;;;6.80;99.90;;;;;;5073564;28;20101;-73
2022/01/14 09:28:33;;;;;;;22.65;13.43;;;6.80;99.90;;;;;;5073319;28;20127;-73
2022/01/14 09:30:58;;;;;;;20.90;11.52;;;6.80;99.90;;;;;;5071836;28;20048;-73
2022/01/14 09:33:24;;;;;;;18.20;12.93;;;6.90;99.90;;;;;;5073351;28;20051;-73
2022/01/14 09:35:50;;;;;;;26.40;13.23;;;6.90;99.90;;;;;;5072672;28;20165;-73
2022/01/14 09:38:16;;;;;;;21.05;13.35;;;6.90;99.90;;;;;;5072126;28;20043;-73
2022/01/14 09:40:46;;;;;;;26.33;13.60;;;6.90;99.90;;;;;;5073220;28;20111;-73
2022/01/14 09:43:14;;;;;;;19.35;11.90;;;6.90;99.90;;;;;;5073393;28;20054;-73
2022/01/14 09:45:40;;;;;;;20.63;12.32;;;7.00;99.90;;;;;;5055820;28;20088;-72
2022/01/14 09:48:06;;;;;;;21.58;11.88;;;7.00;99.90;;;;;;5056404;28;20298;-72
2022/01/14 09:50:32;;;;;;;21.20;11.55;;;7.00;99.90;;;;;;5073354;28;20047;-72
2022/01/14 09:52:57;;;;;;;20.75;10.90;;;7.00;99.90;;;;;;5071824;28;20052;-72
2022/01/14 09:55:26;;;;;;;21.42;10.63;;;7.10;99.90;;;;;;5073297;28;20325;-73
2022/01/14 09:57:57;;;;;;;15.50;11.20;;;7.10;99.90;;;;;;5072508;28;20051;-73
2022/01/14 10:00:22;;;;;;;17.35;10.32;;;7.20;99.90;;;;;;5071949;28;20476;-72
2022/01/14 10:02:50;;;;;;;15.50;10.68;;;7.20;99.90;;;;;;5072676;28;20075;-73
2022/01/14 10:05:36;;;;;;;19.70;11.00;;;7.20;99.90;;;;;;5072952;28;20494;-73
2022/01/14 10:08:13;;;;;;;15.32;9.57;;;7.20;99.90;;;;;;5072723;28;20060;-72
2022/01/14 10:10:43;;;;;;;16.10;9.50;;;7.30;99.90;;;;;;5054449;28;20046;-72
2022/01/14 10:13:18;;;;;;;21.25;9.57;;;7.30;99.90;;;;;;5055299;28;20048;-73
2022/01/14 10:16:00;;;;;;;18.88;9.90;;;7.30;99.90;;;;;;5072688;28;20068;-73
2022/01/14 10:18:26;;;;;;;17.58;8.85;;;7.40;99.90;;;;;;5069937;28;20060;-73
2022/01/14 10:20:52;;;;;;;18.85;10.20;;;7.40;99.90;;;;;;5073019;28;20042;-73
2022/01/14 10:23:38;;;;;;;16.95;9.23;;;7.40;99.90;;;;;;5072476;28;20052;-73
2022/01/14 10:26:04;;;;;;;16.88;8.18;;;7.40;99.90;;;;;;5072615;28;20435;-72
2022/01/14 10:28:30;;;;;;;15.23;8.73;;;7.50;99.90;;;;;;5072865;28;20032;-73
2022/01/14 10:30:56;;;;;;;19.23;7.88;;;7.60;99.90;;;;;;5045490;28;20052;-73
2022/01/14 10:33:27;;;;;;;15.32;7.70;;;7.60;99.90;;;;;;5035563;28;20084;-73
2022/01/14 10:35:53;;;;;;;14.95;7.35;;;7.60;99.90;;;;;;5067384;28;20111;-73
2022/01/14 10:38:21;;;;;;;11.63;7.05;;;7.60;99.90;;;;;;5072848;28;20475;-72
2022/01/14 10:40:48;;;;;;;13.77;5.97;;;7.70;99.90;;;;;;5070822;28;20044;-72
2022/01/14 10:43:15;;;;;;;12.25;5.82;;;7.70;99.90;;;;;;5064453;28;20056;-72
2022/01/14 10:45:43;;;;;;;11.48;5.63;;;7.70;99.90;;;;;;5052336;28;20546;-71
2022/01/14 10:48:25;;;;;;;11.82;6.18;;;7.70;99.90;;;;;;5072538;28;20055;-72
2022/01/14 10:51:04;;;;;;;9.73;4.50;;;7.80;99.90;;;;;;5087410;28;20048;-72
2022/01/14 10:53:48;;;;;;;12.88;4.32;;;7.80;99.90;;;;;;5071138;28;20048;-72
2022/01/14 10:56:18;;;;;;;12.65;4.07;;;7.80;99.90;;;;;;5071512;28;20047;-71
2022/01/14 10:58:46;;;;;;;12.43;3.95;;;7.80;99.90;;;;;;5055024;28;20089;-71
2022/01/14 11:01:15;;;;;;;9.63;3.38;;;7.80;99.90;;;;;;5071576;28;20044;-71
2022/01/14 11:03:48;;;;;;;18.08;4.45;;;7.80;99.90;;;;;;5072063;28;20044;-72
2022/01/14 11:06:29;;;;;;;;;;;7.80;99.90;;;;;;5072805;28;20461;-72
2022/01/14 11:09:10;;;;;;;8.98;4.07;;;7.80;99.90;;;;;;5056824;28;19920;-72
2022/01/14 11:11:40;;;;;;;7.55;4.05;;;7.80;99.90;;;;;;5072765;28;20106;-71
2022/01/14 11:14:07;;;;;;;14.27;3.97;;;7.90;99.90;;;;;;5075286;28;20059;-71
2022/01/14 11:16:34;;;;;;;11.38;3.70;;;7.90;99.90;;;;;;5059117;28;20044;-72
2022/01/14 11:19:01;;;;;;;10.20;4.05;;;8.00;99.90;;;;;;5075818;28;20484;-72
2022/01/14 11:24:15;;;;;;;11.65;3.70;;;8.00;99.90;;;;;;5075872;28;20374;-72
2022/01/14 11:26:43;;;;;;;10.57;3.97;;;8.10;99.90;;;;;;5075012;28;20126;-71
2022/01/14 11:29:13;;;;;;;8.68;3.85;;;8.00;99.90;;;;;;5075139;28;20515;-71
2022/01/14 11:31:40;;;;;;;8.07;3.30;;;8.10;99.90;;;;;;5075061;28;20408;-72
2022/01/14 11:34:09;;;;;;;6.03;3.10;;;8.10;99.90;;;;;;5075267;28;20047;-71
2022/01/14 11:36:56;;;;;;;8.23;2.67;;;8.10;99.90;;;;;;5074269;28;20056;-71
2022/01/14 11:39:29;;;;;;;12.65;2.67;;;8.00;99.90;;;;;;5073530;28;20049;-71
2022/01/14 11:41:56;;;;;;;;;;;8.10;99.90;;;;;;5041087;28;20127;-72
2022/01/14 11:44:41;;;;;;;9.15;2.25;;;8.00;99.90;;;;;;5075005;28;19931;-71
2022/01/14 11:47:08;;;;;;;7.90;2.90;;;8.00;99.90;;;;;;5073678;28;20079;-72
2022/01/14 11:49:38;;;;;;;8.27;2.72;;;8.00;99.90;;;;;;5070597;28;20051;-71
2022/01/14 11:52:06;;;;;;;9.73;2.97;;;8.00;99.90;;;;;;5074910;28;20434;-71
2022/01/14 11:54:43;;;;;;;8.68;2.67;;;8.00;99.90;;;;;;5062848;28;20037;-71
2022/01/14 11:57:10;;;;;;;10.77;2.75;;;7.90;99.90;;;;;;5068470;28;20395;-72
2022/01/14 11:59:36;;;;;;;9.40;2.40;;;7.90;99.90;;;;;;5054620;28;20056;-71
2022/01/14 12:02:26;;;;;;;11.18;2.30;;;7.90;99.90;;;;;;5074751;28;20094;-72
2022/01/14 12:05:20;;;;;;;6.07;1.45;;;7.90;99.90;;;;;;5074108;28;20124;-71
2022/01/14 12:08:01;;;;;;;5.93;1.38;;;7.80;99.90;;;;;;5072592;28;20062;-71
2022/01/14 12:10:35;;;;;;;7.30;1.25;;;7.80;99.90;;;;;;5073646;28;20040;-71
2022/01/14 12:13:37;;;;;;;7.93;1.58;;;7.90;99.90;;;;;;5049994;28;20051;-72
2022/01/14 12:16:08;;;;;;;8.93;1.83;;;7.90;99.90;;;;;;5074298;28;20488;-71
2022/01/14 12:18:48;;;;;;;8.07;1.73;;;7.90;99.90;;;;;;5073842;28;20496;-72
2022/01/14 12:21:14;;;;;;;8.43;1.83;;;7.90;99.90;;;;;;5058048;28;20036;-72
2022/01/14 12:23:41;;;;;;;7.75;1.60;;;7.90;99.90;;;;;;5074203;28;20096;-72
2022/01/14 12:26:18;;;;;;;6.68;1.52;;;7.90;99.90;;;;;;5057194;28;20047;-72
2022/01/14 12:28:46;;;;;;;5.07;1.40;;;7.90;99.90;;;;;;5074539;28;20131;-72
2022/01/14 12:31:12;;;;;;;6.30;2.70;;;7.90;99.90;;;;;;5091969;28;20039;-72
2022/01/14 12:33:45;;;;;;;6.70;1.70;;;7.90;99.90;;;;;;5074826;28;20565;-72
2022/01/14 12:36:18;;;;;;;5.93;1.92;;;7.90;99.90;;;;;;5058075;28;20119;-72
2022/01/14 12:38:44;;;;;;;6.60;2.00;;;7.90;99.90;;;;;;5074096;28;20055;-72
2022/01/14 12:41:21;;;;;;;6.38;1.70;;;7.90;99.90;;;;;;5073462;28;20032;-72
2022/01/14 12:43:52;;;;;;;9.70;2.05;;;7.90;99.90;;;;;;5073502;28;20051;-72
2022/01/14 12:49:22;;;;;;;7.93;2.00;;;7.90;99.90;;;;;;5072552;28;20048;-71
2022/01/14 12:52:10;;;;;;;12.25;2.40;;;7.90;99.90;;;;;;5074443;28;20131;-71
2022/01/14 12:54:38;;;;;;;7.75;2.10;;;7.90;99.90;;;;;;5073469;28;20036;-71
2022/01/14 12:57:04;;;;;;;10.80;1.90;;;7.90;99.90;;;;;;5074021;28;20131;-71
2022/01/14 12:59:51;;;;;;;6.80;1.88;;;7.80;99.90;;;;;;5073309;28;20054;-71
2022/01/14 13:02:19;;;;;;;11.95;1.65;;;7.90;99.90;;;;;;5057483;28;20062;-72
2022/01/14 13:04:45;;;;;;;7.05;2.00;;;7.90;99.90;;;;;;5073629;28;20127;-72
2022/01/14 13:07:12;;;;;;;6.47;1.80;;;7.90;99.90;;;;;;5091223;28;20123;-71
2022/01/14 13:09:42;;;;;;;9.98;1.73;;;7.80;99.90;;;;;;5073088;28;20039;-71
2022/01/14 13:12:13;;;;;;;9.90;2.05;;;7.90;99.90;;;;;;5073912;28;20052;-71
2022/01/14 13:14:45;;;;;;;11.90;2.30;;;7.90;99.90;;;;;;5070098;28;20155;-72